Atlantic Horizon — C6XI2 — position and weather

sailwx.info

Track history (hours):
 
Tides and Currents Weather Stations Pressure Air Temp Water Temp Dewpoint Dewpoint Depression Visibility Wind Speed Wind Dir Waves Ship Positions

Atlantic Horizon

Last reported at 2016-Apr-28 15:30 UTC. Time now 2016-May-01 06:07 UTC.
Position N 01°15' E 104°04'.

Length 225 m; draft 11.4 m.

Type: Cargo ship. MMSI: 311010300.

Date/timePositionNaut miles runAvg speedWind from/ knotsBaromVisibWave heightAir tempDewpointWater temp
2016-Apr-28 15:30N 01°15' E 104°04'6 6.2
2016-Apr-28 14:33N 01°17' E 103°58'1 0.7
2016-Apr-28 13:11N 01°17' E 103°58'0 0.0
2016-Apr-28 12:32N 01°17' E 103°58'0 0.0
2016-Apr-28 11:26N 01°17' E 103°58'0 0.0
2016-Apr-28 10:26N 01°17' E 103°58'0 0.0
2016-Apr-28 09:32N 01°17' E 103°58'0 0.0
2016-Apr-28 08:32N 01°17' E 103°58'0 0.1
2016-Apr-28 07:14N 01°17' E 103°58'0 0.0
2016-Apr-28 06:08N 01°17' E 103°58'0 0.1
2016-Apr-28 05:26N 01°17' E 103°58'0 0.1
2016-Apr-28 03:14N 01°17' E 103°58'0 0.1
2016-Apr-28 02:26N 01°17' E 103°58'0 0.1
2016-Apr-28 01:32N 01°17' E 103°58'0 0.1
2016-Apr-27 23:33N 01°17' E 103°58'3 2.7
2016-Apr-27 22:33N 01°15' E 103°57'6 6.4
2016-Apr-27 21:32N 01°12' E 103°52'7 7.5
2016-Apr-27 20:32N 01°08' E 103°45'88 9.7
2016-Apr-27 11:26N 01°48' E 102°27'1112.0
2016-Apr-27 10:33N 01°53' E 102°17'1311.9
2016-Apr-27 09:26N 02°01' E 102°07'  
Track history (hours):
 
Tides and Currents Weather Stations Pressure Air Temp Water Temp Dewpoint Dewpoint Depression Visibility Wind Speed Wind Dir Waves Ship Positions

Atlantic Horizon

Last reported at 2016-Apr-28 15:30 UTC. Time now 2016-May-01 06:07 UTC.
Position N 01°15' E 104°04'.

Length 225 m; draft 11.4 m.

Type: Cargo ship. MMSI: 311010300.

Date/timePositionNaut miles runAvg speedWind from/ knotsBaromVisibWave heightAir tempDewpointWater temp
2016-Apr-28 15:30N 01°15' E 104°04'6 6.2
2016-Apr-28 14:33N 01°17' E 103°58'1 0.7
2016-Apr-28 13:11N 01°17' E 103°58'0 0.0
2016-Apr-28 12:32N 01°17' E 103°58'0 0.0
2016-Apr-28 11:26N 01°17' E 103°58'0 0.0
2016-Apr-28 10:26N 01°17' E 103°58'0 0.0
2016-Apr-28 09:32N 01°17' E 103°58'0 0.0
2016-Apr-28 08:32N 01°17' E 103°58'0 0.1
2016-Apr-28 07:14N 01°17' E 103°58'0 0.0
2016-Apr-28 06:08N 01°17' E 103°58'0 0.1
2016-Apr-28 05:26N 01°17' E 103°58'0 0.1
2016-Apr-28 03:14N 01°17' E 103°58'0 0.1
2016-Apr-28 02:26N 01°17' E 103°58'0 0.1
2016-Apr-28 01:32N 01°17' E 103°58'0 0.1
2016-Apr-27 23:33N 01°17' E 103°58'3 2.7
2016-Apr-27 22:33N 01°15' E 103°57'6 6.4
2016-Apr-27 21:32N 01°12' E 103°52'7 7.5
2016-Apr-27 20:32N 01°08' E 103°45'88 9.7
2016-Apr-27 11:26N 01°48' E 102°27'1112.0
2016-Apr-27 10:33N 01°53' E 102°17'1311.9
2016-Apr-27 09:26N 02°01' E 102°07'  

Dump ship's entire track history